INFORMACIÓN METAR y TAF
METAR FOR EDDN
ADDS - METARS form results

(1404 UTC 30 May 2020)
Data provider http://aviationweather.gov/metar/data/
 
METAR text: EDDN 301350Z 03010KT 350V060 CAVOK 17/02 Q1021 NOSIG
Conditions at: EDDN (NUERNBERG , DE) observed 1350 UTC 30 May 2020
Temperature: 17.0°C (63°F)
Dewpoint: 2.0°C (36°F) [RH = 36%]
Pressure (altimeter): 30.15 inches Hg (1021.0 mb)
Winds: from the NNE (30 degrees) at 12 MPH (10 knots; 5.1 m/s)
Visibility: 6 or more miles (10+ km)
Ceiling: ceiling and visibility are OK
Clouds: unknown
Weather: no significant weather observed at this time

METAR text: EDDN 301320Z 01007KT 290V080 CAVOK 17/02 Q1021 NOSIG
Conditions at: EDDN (NUERNBERG , DE) observed 1320 UTC 30 May 2020
Temperature: 17.0°C (63°F)
Dewpoint: 2.0°C (36°F) [RH = 36%]
Pressure (altimeter): 30.15 inches Hg (1021.0 mb)
Winds: from the N (10 degrees) at 8 MPH (7 knots; 3.6 m/s)
Visibility: 6 or more miles (10+ km)
Ceiling: ceiling and visibility are OK
Clouds: unknown
Weather: no significant weather observed at this time

Forecast for: EDDN (NUERNBERG , DE)
Text: TAF EDDN 301100Z 3012/3112 02008KT CAVOK
Forecast period: 1200 to 1800 UTC 30 May 2020
Forecast type: FROM: standard forecast or significant change
Winds: from the NNE (20 degrees) at 9 MPH (8 knots; 4.1 m/s)
Visibility: 6 or more miles 10+ km)
Ceiling: unknown
Clouds: missing
Weather: NSW  (no significant weather)
Text: BECMG 3018/3021 VRB02KT
Forecast period: 1800 UTC 30 May 2020 to 0600 UTC 31 May 2020
Forecast type: BECOMING: Conditions expected to become as follows by 2100 UTC 30 May 2020
Winds: variable direction winds at 2 MPH (2 knots; 1.0 m/s)
Visibility: 6 or more miles 10+ km)
Ceiling: unknown
Clouds: missing
Weather: NSW  (no significant weather)
Text: BECMG 3106/3108 01007KT
Forecast period: 0600 to 1200 UTC 31 May 2020
Forecast type: BECOMING: Conditions expected to become as follows by 0800 UTC 31 May 2020
Winds: from the N (10 degrees) at 8 MPH (7 knots; 3.6 m/s)
Visibility: 6 or more miles 10+ km)
Ceiling: unknown
Clouds: missing
Weather: NSW  (no significant weather)

 MAPA DE AEROPUERTO

 INFORMACIÓN DE PISTA
Pista 10 Longitud 8858 ft Ancho 148 ft
Elevación 1022 ft Umbral desplazado 0 ft Rumbo de pista 99
Pista 28 Longitud 8858 ft Ancho 148 ft
Elevación 1046 ft Umbral desplazado 0 ft Rumbo de pista 279

 FRECUANCIAS DEL AEROPUERTO
Tipo AFIS Nombre MUNCHEN IN Frecuencia 120.65 MHZ
Tipo ATIS Nombre ATIS Frecuencia 123.075 MHZ
Tipo DIR Nombre DIR Frecuencia 119.475 MHZ
Tipo GND Nombre GND Frecuencia 118.1 MHZ
Tipo RDR Nombre MUNCHEN RA Frecuencia 118.975 MHZ
Tipo TWR Nombre TWR Frecuencia 118.3 MHZ

 RADIO AYUDAS DEL AEROPUERTO
Tipo DME Nombre Nurnberg Frecuencia 113100 KHZ
Tipo NDB Nombre Rothenbach Frecuencia 415 KHZ



Powered by Virtual Airlines Manager [v2.6.2]